sensor_id;sensor_type;location;lat;lon;timestamp;P1;durP1;ratioP1;P2;durP2;ratioP2
65863;SDS011;52639;51.180;20.460;2022-09-30T00:03:26;42.08;;;18.50;;
65863;SDS011;52639;51.180;20.460;2022-09-30T00:07:29;39.22;;;17.75;;
65863;SDS011;52639;51.180;20.460;2022-09-30T00:11:33;36.22;;;17.30;;
65863;SDS011;52639;51.180;20.460;2022-09-30T00:15:39;31.35;;;16.35;;
65863;SDS011;52639;51.180;20.460;2022-09-30T00:19:42;39.40;;;16.45;;
65863;SDS011;52639;51.180;20.460;2022-09-30T00:23:44;43.65;;;18.48;;
65863;SDS011;52639;51.180;20.460;2022-09-30T00:27:47;34.28;;;16.63;;
65863;SDS011;52639;51.180;20.460;2022-09-30T00:31:50;39.65;;;17.02;;
65863;SDS011;52639;51.180;20.460;2022-09-30T00:35:53;41.70;;;17.65;;
65863;SDS011;52639;51.180;20.460;2022-09-30T00:39:55;39.97;;;17.90;;
65863;SDS011;52639;51.180;20.460;2022-09-30T00:43:58;28.92;;;13.80;;
65863;SDS011;52639;51.180;20.460;2022-09-30T00:48:04;30.40;;;14.13;;
65863;SDS011;52639;51.180;20.460;2022-09-30T00:52:12;30.90;;;14.37;;
65863;SDS011;52639;51.180;20.460;2022-09-30T00:56:15;27.58;;;13.30;;
65863;SDS011;52639;51.180;20.460;2022-09-30T01:00:21;27.40;;;13.43;;
65863;SDS011;52639;51.180;20.460;2022-09-30T01:04:26;29.20;;;13.32;;
65863;SDS011;52639;51.180;20.460;2022-09-30T01:08:32;40.72;;;15.85;;
65863;SDS011;52639;51.180;20.460;2022-09-30T01:12:37;30.33;;;13.52;;
65863;SDS011;52639;51.180;20.460;2022-09-30T01:16:44;29.38;;;13.65;;
65863;SDS011;52639;51.180;20.460;2022-09-30T01:21:07;37.83;;;15.10;;
65863;SDS011;52639;51.180;20.460;2022-09-30T01:25:46;25.10;;;13.38;;
65863;SDS011;52639;51.180;20.460;2022-09-30T01:34:17;29.35;;;11.63;;
65863;SDS011;52639;51.180;20.460;2022-09-30T01:38:36;25.08;;;11.27;;
65863;SDS011;52639;51.180;20.460;2022-09-30T01:42:50;30.25;;;13.50;;
65863;SDS011;52639;51.180;20.460;2022-09-30T01:46:58;25.75;;;11.70;;
65863;SDS011;52639;51.180;20.460;2022-09-30T01:51:09;29.70;;;13.55;;
65863;SDS011;52639;51.180;20.460;2022-09-30T01:55:19;29.15;;;12.82;;
65863;SDS011;52639;51.180;20.460;2022-09-30T01:59:25;31.05;;;12.57;;
65863;SDS011;52639;51.180;20.460;2022-09-30T02:03:34;34.15;;;11.18;;
65863;SDS011;52639;51.180;20.460;2022-09-30T02:07:42;27.60;;;11.65;;
65863;SDS011;52639;51.180;20.460;2022-09-30T02:11:50;23.90;;;12.20;;
65863;SDS011;52639;51.180;20.460;2022-09-30T02:15:58;28.95;;;12.57;;
65863;SDS011;52639;51.180;20.460;2022-09-30T02:20:12;26.45;;;12.30;;
65863;SDS011;52639;51.180;20.460;2022-09-30T02:24:20;33.60;;;14.95;;
65863;SDS011;52639;51.180;20.460;2022-09-30T02:28:26;41.85;;;20.05;;
65863;SDS011;52639;51.180;20.460;2022-09-30T02:32:30;44.03;;;22.40;;
65863;SDS011;52639;51.180;20.460;2022-09-30T02:36:38;30.65;;;14.88;;
65863;SDS011;52639;51.180;20.460;2022-09-30T02:40:48;36.35;;;16.27;;
65863;SDS011;52639;51.180;20.460;2022-09-30T02:44:55;28.85;;;15.90;;
65863;SDS011;52639;51.180;20.460;2022-09-30T02:49:03;33.72;;;17.02;;
65863;SDS011;52639;51.180;20.460;2022-09-30T02:53:20;33.45;;;14.88;;
65863;SDS011;52639;51.180;20.460;2022-09-30T02:57:29;28.92;;;12.68;;
65863;SDS011;52639;51.180;20.460;2022-09-30T03:01:38;24.87;;;11.33;;
65863;SDS011;52639;51.180;20.460;2022-09-30T03:05:42;19.20;;;9.48;;
65863;SDS011;52639;51.180;20.460;2022-09-30T03:09:45;31.38;;;11.65;;
65863;SDS011;52639;51.180;20.460;2022-09-30T03:14:10;35.17;;;11.95;;
65863;SDS011;52639;51.180;20.460;2022-09-30T03:18:36;28.80;;;11.15;;
65863;SDS011;52639;51.180;20.460;2022-09-30T03:22:55;23.08;;;10.35;;
65863;SDS011;52639;51.180;20.460;2022-09-30T03:27:12;28.85;;;13.60;;
65863;SDS011;52639;51.180;20.460;2022-09-30T03:31:28;42.28;;;22.58;;
65863;SDS011;52639;51.180;20.460;2022-09-30T03:39:50;29.90;;;14.85;;
65863;SDS011;52639;51.180;20.460;2022-09-30T03:43:56;30.52;;;12.50;;
65863;SDS011;52639;51.180;20.460;2022-09-30T03:48:07;30.58;;;13.65;;
65863;SDS011;52639;51.180;20.460;2022-09-30T03:52:12;21.00;;;11.30;;
65863;SDS011;52639;51.180;20.460;2022-09-30T03:56:22;24.40;;;10.73;;
65863;SDS011;52639;51.180;20.460;2022-09-30T04:00:26;22.67;;;11.15;;
65863;SDS011;52639;51.180;20.460;2022-09-30T04:04:30;25.92;;;11.93;;
65863;SDS011;52639;51.180;20.460;2022-09-30T04:08:32;25.70;;;11.82;;
65863;SDS011;52639;51.180;20.460;2022-09-30T04:12:35;24.27;;;11.00;;
65863;SDS011;52639;51.180;20.460;2022-09-30T04:16:37;29.88;;;11.55;;
65863;SDS011;52639;51.180;20.460;2022-09-30T04:20:41;17.98;;;9.85;;
65863;SDS011;52639;51.180;20.460;2022-09-30T04:24:43;23.48;;;10.90;;
65863;SDS011;52639;51.180;20.460;2022-09-30T04:28:47;26.88;;;11.80;;
65863;SDS011;52639;51.180;20.460;2022-09-30T04:32:49;38.58;;;16.75;;
65863;SDS011;52639;51.180;20.460;2022-09-30T04:36:53;48.92;;;20.70;;
65863;SDS011;52639;51.180;20.460;2022-09-30T04:40:56;43.65;;;19.13;;
65863;SDS011;52639;51.180;20.460;2022-09-30T04:44:58;26.55;;;12.95;;
65863;SDS011;52639;51.180;20.460;2022-09-30T04:49:02;23.77;;;10.65;;
65863;SDS011;52639;51.180;20.460;2022-09-30T04:53:07;23.50;;;12.48;;
65863;SDS011;52639;51.180;20.460;2022-09-30T04:57:14;21.95;;;10.75;;
65863;SDS011;52639;51.180;20.460;2022-09-30T05:01:17;32.05;;;14.35;;
65863;SDS011;52639;51.180;20.460;2022-09-30T05:05:20;34.85;;;17.70;;
65863;SDS011;52639;51.180;20.460;2022-09-30T05:09:24;31.65;;;14.23;;
65863;SDS011;52639;51.180;20.460;2022-09-30T05:13:29;29.83;;;15.30;;
65863;SDS011;52639;51.180;20.460;2022-09-30T05:17:33;30.23;;;16.27;;
65863;SDS011;52639;51.180;20.460;2022-09-30T05:21:35;26.00;;;15.25;;
65863;SDS011;52639;51.180;20.460;2022-09-30T05:25:39;39.42;;;20.08;;
65863;SDS011;52639;51.180;20.460;2022-09-30T05:29:42;33.90;;;15.27;;
65863;SDS011;52639;51.180;20.460;2022-09-30T05:33:44;37.00;;;18.63;;
65863;SDS011;52639;51.180;20.460;2022-09-30T05:37:47;21.48;;;12.13;;
65863;SDS011;52639;51.180;20.460;2022-09-30T05:41:51;24.33;;;13.43;;
65863;SDS011;52639;51.180;20.460;2022-09-30T05:45:53;29.23;;;15.32;;
65863;SDS011;52639;51.180;20.460;2022-09-30T05:49:56;38.10;;;24.95;;
65863;SDS011;52639;51.180;20.460;2022-09-30T05:53:59;40.00;;;24.08;;
65863;SDS011;52639;51.180;20.460;2022-09-30T05:58:03;39.47;;;22.40;;
65863;SDS011;52639;51.180;20.460;2022-09-30T06:02:07;31.67;;;16.23;;
65863;SDS011;52639;51.180;20.460;2022-09-30T06:06:10;33.53;;;15.05;;
65863;SDS011;52639;51.180;20.460;2022-09-30T06:10:12;33.97;;;15.20;;
65863;SDS011;52639;51.180;20.460;2022-09-30T06:14:16;49.53;;;19.77;;
65863;SDS011;52639;51.180;20.460;2022-09-30T06:18:19;47.30;;;19.77;;
65863;SDS011;52639;51.180;20.460;2022-09-30T06:22:22;35.78;;;17.48;;
65863;SDS011;52639;51.180;20.460;2022-09-30T06:26:24;43.10;;;18.60;;
65863;SDS011;52639;51.180;20.460;2022-09-30T06:30:29;32.45;;;16.08;;
65863;SDS011;52639;51.180;20.460;2022-09-30T06:34:31;36.47;;;16.58;;
65863;SDS011;52639;51.180;20.460;2022-09-30T06:38:34;29.23;;;13.48;;
65863;SDS011;52639;51.180;20.460;2022-09-30T06:42:39;33.35;;;15.23;;
65863;SDS011;52639;51.180;20.460;2022-09-30T06:46:43;29.73;;;15.07;;
65863;SDS011;52639;51.180;20.460;2022-09-30T06:50:46;30.92;;;14.93;;
65863;SDS011;52639;51.180;20.460;2022-09-30T06:54:48;29.90;;;15.82;;
65863;SDS011;52639;51.180;20.460;2022-09-30T06:58:51;29.75;;;16.80;;
65863;SDS011;52639;51.180;20.460;2022-09-30T07:02:58;28.88;;;14.93;;
65863;SDS011;52639;51.180;20.460;2022-09-30T07:07:00;26.08;;;13.10;;
65863;SDS011;52639;51.180;20.460;2022-09-30T07:11:04;29.85;;;14.38;;
65863;SDS011;52639;51.180;20.460;2022-09-30T07:15:11;29.75;;;16.48;;
65863;SDS011;52639;51.180;20.460;2022-09-30T07:19:15;28.60;;;16.90;;
65863;SDS011;52639;51.180;20.460;2022-09-30T07:23:22;30.95;;;16.23;;
65863;SDS011;52639;51.180;20.460;2022-09-30T07:27:27;26.98;;;14.43;;
65863;SDS011;52639;51.180;20.460;2022-09-30T07:31:32;34.42;;;23.40;;
65863;SDS011;52639;51.180;20.460;2022-09-30T07:35:36;51.80;;;40.10;;
65863;SDS011;52639;51.180;20.460;2022-09-30T07:39:38;32.08;;;16.77;;
65863;SDS011;52639;51.180;20.460;2022-09-30T07:43:42;31.15;;;15.90;;
65863;SDS011;52639;51.180;20.460;2022-09-30T07:47:45;24.85;;;13.93;;
65863;SDS011;52639;51.180;20.460;2022-09-30T07:51:50;22.90;;;13.57;;
65863;SDS011;52639;51.180;20.460;2022-09-30T07:55:54;26.98;;;14.23;;
65863;SDS011;52639;51.180;20.460;2022-09-30T07:59:56;18.20;;;9.25;;
65863;SDS011;52639;51.180;20.460;2022-09-30T08:21:05;20.10;;;14.55;;
65863;SDS011;52639;51.180;20.460;2022-09-30T08:25:08;16.80;;;10.43;;
65863;SDS011;52639;51.180;20.460;2022-09-30T08:29:10;19.63;;;11.52;;
65863;SDS011;52639;51.180;20.460;2022-09-30T08:33:15;15.13;;;9.27;;
65863;SDS011;52639;51.180;20.460;2022-09-30T08:37:32;15.98;;;9.80;;
65863;SDS011;52639;51.180;20.460;2022-09-30T08:50:36;15.82;;;9.60;;
65863;SDS011;52639;51.180;20.460;2022-09-30T08:54:52;13.73;;;9.02;;
65863;SDS011;52639;51.180;20.460;2022-09-30T08:58:58;15.63;;;9.80;;
65863;SDS011;52639;51.180;20.460;2022-09-30T09:03:08;14.65;;;8.93;;
65863;SDS011;52639;51.180;20.460;2022-09-30T09:07:16;20.58;;;12.52;;
65863;SDS011;52639;51.180;20.460;2022-09-30T09:11:32;18.08;;;9.80;;
65863;SDS011;52639;51.180;20.460;2022-09-30T09:15:45;15.77;;;8.77;;
65863;SDS011;52639;51.180;20.460;2022-09-30T09:19:56;16.27;;;9.87;;
65863;SDS011;52639;51.180;20.460;2022-09-30T09:32:34;12.57;;;6.25;;
65863;SDS011;52639;51.180;20.460;2022-09-30T09:36:47;11.82;;;7.93;;
65863;SDS011;52639;51.180;20.460;2022-09-30T09:41:17;18.95;;;9.35;;
65863;SDS011;52639;51.180;20.460;2022-09-30T09:45:31;19.85;;;10.00;;
65863;SDS011;52639;51.180;20.460;2022-09-30T09:49:43;23.48;;;10.15;;
65863;SDS011;52639;51.180;20.460;2022-09-30T09:53:47;10.85;;;6.43;;
65863;SDS011;52639;51.180;20.460;2022-09-30T09:58:04;11.55;;;6.65;;
65863;SDS011;52639;51.180;20.460;2022-09-30T10:02:20;13.40;;;7.57;;
65863;SDS011;52639;51.180;20.460;2022-09-30T10:06:29;14.60;;;7.95;;
65863;SDS011;52639;51.180;20.460;2022-09-30T10:10:46;10.43;;;6.20;;
65863;SDS011;52639;51.180;20.460;2022-09-30T10:14:56;13.13;;;7.70;;
65863;SDS011;52639;51.180;20.460;2022-09-30T10:19:17;29.10;;;13.30;;
65863;SDS011;52639;51.180;20.460;2022-09-30T10:23:28;20.85;;;10.30;;
65863;SDS011;52639;51.180;20.460;2022-09-30T10:27:33;15.57;;;7.70;;
65863;SDS011;52639;51.180;20.460;2022-09-30T10:31:36;13.65;;;7.68;;
65863;SDS011;52639;51.180;20.460;2022-09-30T10:35:54;19.50;;;10.43;;
65863;SDS011;52639;51.180;20.460;2022-09-30T10:40:04;13.93;;;8.65;;
65863;SDS011;52639;51.180;20.460;2022-09-30T10:44:12;17.67;;;11.13;;
65863;SDS011;52639;51.180;20.460;2022-09-30T10:48:21;15.82;;;9.55;;
65863;SDS011;52639;51.180;20.460;2022-09-30T10:52:26;18.38;;;11.35;;
65863;SDS011;52639;51.180;20.460;2022-09-30T10:56:42;36.65;;;23.63;;
65863;SDS011;52639;51.180;20.460;2022-09-30T11:00:48;17.55;;;9.38;;
65863;SDS011;52639;51.180;20.460;2022-09-30T11:11:03;18.83;;;9.60;;
65863;SDS011;52639;51.180;20.460;2022-09-30T11:15:15;19.15;;;11.75;;
65863;SDS011;52639;51.180;20.460;2022-09-30T11:19:27;16.65;;;10.07;;
65863;SDS011;52639;51.180;20.460;2022-09-30T11:23:34;21.08;;;10.82;;
65863;SDS011;52639;51.180;20.460;2022-09-30T11:27:51;16.20;;;10.30;;
65863;SDS011;52639;51.180;20.460;2022-09-30T11:32:15;19.52;;;11.25;;
65863;SDS011;52639;51.180;20.460;2022-09-30T11:36:38;22.10;;;12.85;;
65863;SDS011;52639;51.180;20.460;2022-09-30T11:49:13;20.85;;;13.02;;
65863;SDS011;52639;51.180;20.460;2022-09-30T11:58:21;23.95;;;12.88;;
65863;SDS011;52639;51.180;20.460;2022-09-30T12:23:15;19.30;;;11.82;;
65863;SDS011;52639;51.180;20.460;2022-09-30T12:37:25;26.33;;;14.20;;
65863;SDS011;52639;51.180;20.460;2022-09-30T12:41:56;20.30;;;11.80;;
65863;SDS011;52639;51.180;20.460;2022-09-30T12:47:06;22.25;;;12.23;;
65863;SDS011;52639;51.180;20.460;2022-09-30T12:51:22;22.08;;;12.85;;
65863;SDS011;52639;51.180;20.460;2022-09-30T12:55:38;18.75;;;10.40;;
65863;SDS011;52639;51.180;20.460;2022-09-30T13:13:10;17.58;;;10.65;;
65863;SDS011;52639;51.180;20.460;2022-09-30T13:17:24;17.40;;;10.52;;
65863;SDS011;52639;51.180;20.460;2022-09-30T13:21:32;17.05;;;10.85;;
65863;SDS011;52639;51.180;20.460;2022-09-30T13:29:55;18.02;;;11.52;;
65863;SDS011;52639;51.180;20.460;2022-09-30T13:34:04;15.75;;;9.55;;
65863;SDS011;52639;51.180;20.460;2022-09-30T13:38:17;14.68;;;9.52;;
65863;SDS011;52639;51.180;20.460;2022-09-30T13:42:22;14.20;;;8.57;;
65863;SDS011;52639;51.180;20.460;2022-09-30T13:46:29;12.50;;;8.00;;
65863;SDS011;52639;51.180;20.460;2022-09-30T13:50:37;11.90;;;7.75;;
65863;SDS011;52639;51.180;20.460;2022-09-30T13:54:47;16.77;;;9.55;;
65863;SDS011;52639;51.180;20.460;2022-09-30T14:03:44;20.92;;;12.05;;
65863;SDS011;52639;51.180;20.460;2022-09-30T14:08:02;17.25;;;9.35;;
65863;SDS011;52639;51.180;20.460;2022-09-30T14:12:30;16.48;;;8.75;;
65863;SDS011;52639;51.180;20.460;2022-09-30T14:21:24;17.65;;;10.80;;
65863;SDS011;52639;51.180;20.460;2022-09-30T14:25:39;16.42;;;9.43;;
65863;SDS011;52639;51.180;20.460;2022-09-30T14:29:53;17.13;;;10.27;;
65863;SDS011;52639;51.180;20.460;2022-09-30T14:34:04;23.48;;;13.38;;
65863;SDS011;52639;51.180;20.460;2022-09-30T14:38:16;22.90;;;11.82;;
65863;SDS011;52639;51.180;20.460;2022-09-30T14:42:23;22.45;;;12.00;;
65863;SDS011;52639;51.180;20.460;2022-09-30T14:46:33;13.60;;;8.85;;
65863;SDS011;52639;51.180;20.460;2022-09-30T14:50:43;16.83;;;9.73;;
65863;SDS011;52639;51.180;20.460;2022-09-30T14:54:54;18.85;;;10.35;;
65863;SDS011;52639;51.180;20.460;2022-09-30T14:59:10;16.10;;;9.50;;
65863;SDS011;52639;51.180;20.460;2022-09-30T15:03:20;14.95;;;9.05;;
65863;SDS011;52639;51.180;20.460;2022-09-30T15:07:23;18.58;;;11.10;;
65863;SDS011;52639;51.180;20.460;2022-09-30T15:11:25;19.17;;;10.68;;
65863;SDS011;52639;51.180;20.460;2022-09-30T15:15:33;19.33;;;11.60;;
65863;SDS011;52639;51.180;20.460;2022-09-30T15:19:41;18.58;;;11.40;;
65863;SDS011;52639;51.180;20.460;2022-09-30T15:23:45;18.83;;;10.20;;
65863;SDS011;52639;51.180;20.460;2022-09-30T15:27:50;21.25;;;11.48;;
65863;SDS011;52639;51.180;20.460;2022-09-30T15:31:55;16.27;;;9.75;;
65863;SDS011;52639;51.180;20.460;2022-09-30T15:40:26;20.45;;;12.07;;
65863;SDS011;52639;51.180;20.460;2022-09-30T15:44:45;33.63;;;17.58;;
65863;SDS011;52639;51.180;20.460;2022-09-30T15:48:49;21.58;;;11.20;;
65863;SDS011;52639;51.180;20.460;2022-09-30T15:52:53;21.63;;;11.20;;
65863;SDS011;52639;51.180;20.460;2022-09-30T15:56:58;29.13;;;16.95;;
65863;SDS011;52639;51.180;20.460;2022-09-30T16:05:29;21.80;;;12.13;;
65863;SDS011;52639;51.180;20.460;2022-09-30T16:09:35;22.88;;;13.35;;
65863;SDS011;52639;51.180;20.460;2022-09-30T16:13:41;19.50;;;12.45;;
65863;SDS011;52639;51.180;20.460;2022-09-30T16:17:46;27.17;;;15.13;;
65863;SDS011;52639;51.180;20.460;2022-09-30T16:21:55;20.60;;;11.82;;
65863;SDS011;52639;51.180;20.460;2022-09-30T16:26:15;21.92;;;11.45;;
65863;SDS011;52639;51.180;20.460;2022-09-30T16:34:38;25.92;;;12.27;;
65863;SDS011;52639;51.180;20.460;2022-09-30T16:39:22;29.25;;;15.60;;
65863;SDS011;52639;51.180;20.460;2022-09-30T16:43:26;26.55;;;13.80;;
65863;SDS011;52639;51.180;20.460;2022-09-30T16:47:32;31.95;;;16.65;;
65863;SDS011;52639;51.180;20.460;2022-09-30T16:51:36;30.38;;;15.05;;
65863;SDS011;52639;51.180;20.460;2022-09-30T16:55:44;26.10;;;14.10;;
65863;SDS011;52639;51.180;20.460;2022-09-30T16:59:51;29.13;;;15.77;;
65863;SDS011;52639;51.180;20.460;2022-09-30T17:03:55;43.80;;;24.52;;
65863;SDS011;52639;51.180;20.460;2022-09-30T17:08:13;36.50;;;19.92;;
65863;SDS011;52639;51.180;20.460;2022-09-30T17:12:17;25.60;;;14.15;;
65863;SDS011;52639;51.180;20.460;2022-09-30T17:16:26;27.05;;;13.93;;
65863;SDS011;52639;51.180;20.460;2022-09-30T17:20:30;39.67;;;20.95;;
65863;SDS011;52639;51.180;20.460;2022-09-30T17:51:37;30.33;;;15.25;;
65863;SDS011;52639;51.180;20.460;2022-09-30T17:55:59;31.35;;;15.48;;
65863;SDS011;52639;51.180;20.460;2022-09-30T18:00:05;38.80;;;18.33;;
65863;SDS011;52639;51.180;20.460;2022-09-30T18:04:12;44.05;;;20.60;;
65863;SDS011;52639;51.180;20.460;2022-09-30T18:08:28;45.40;;;20.20;;
65863;SDS011;52639;51.180;20.460;2022-09-30T18:12:31;37.67;;;18.35;;
65863;SDS011;52639;51.180;20.460;2022-09-30T18:16:35;40.38;;;18.15;;
65863;SDS011;52639;51.180;20.460;2022-09-30T18:20:40;66.70;;;28.10;;
65863;SDS011;52639;51.180;20.460;2022-09-30T18:24:45;32.58;;;15.85;;
65863;SDS011;52639;51.180;20.460;2022-09-30T18:34:14;37.83;;;18.20;;
65863;SDS011;52639;51.180;20.460;2022-09-30T18:43:42;49.38;;;21.13;;
65863;SDS011;52639;51.180;20.460;2022-09-30T18:47:47;37.83;;;16.02;;
65863;SDS011;52639;51.180;20.460;2022-09-30T18:51:49;38.63;;;17.05;;
65863;SDS011;52639;51.180;20.460;2022-09-30T18:55:52;39.70;;;16.00;;
65863;SDS011;52639;51.180;20.460;2022-09-30T18:59:57;42.70;;;16.13;;
65863;SDS011;52639;51.180;20.460;2022-09-30T19:04:03;40.55;;;17.63;;
65863;SDS011;52639;51.180;20.460;2022-09-30T19:16:23;45.63;;;18.60;;
65863;SDS011;52639;51.180;20.460;2022-09-30T19:20:27;39.92;;;17.70;;
65863;SDS011;52639;51.180;20.460;2022-09-30T19:24:30;47.45;;;17.38;;
65863;SDS011;52639;51.180;20.460;2022-09-30T19:28:33;45.72;;;17.27;;
65863;SDS011;52639;51.180;20.460;2022-09-30T19:32:39;58.00;;;19.80;;
65863;SDS011;52639;51.180;20.460;2022-09-30T19:36:43;97.47;;;28.48;;
65863;SDS011;52639;51.180;20.460;2022-09-30T19:51:36;61.17;;;22.27;;
65863;SDS011;52639;51.180;20.460;2022-09-30T19:55:39;55.15;;;24.08;;
65863;SDS011;52639;51.180;20.460;2022-09-30T19:59:42;59.15;;;25.20;;
65863;SDS011;52639;51.180;20.460;2022-09-30T20:03:45;60.55;;;23.58;;
65863;SDS011;52639;51.180;20.460;2022-09-30T20:07:51;50.40;;;21.98;;
65863;SDS011;52639;51.180;20.460;2022-09-30T20:11:54;58.25;;;23.67;;
65863;SDS011;52639;51.180;20.460;2022-09-30T20:15:59;48.35;;;16.33;;
65863;SDS011;52639;51.180;20.460;2022-09-30T20:20:06;83.28;;;18.23;;
65863;SDS011;52639;51.180;20.460;2022-09-30T20:24:30;72.77;;;22.70;;
65863;SDS011;52639;51.180;20.460;2022-09-30T20:28:38;64.57;;;18.27;;
65863;SDS011;52639;51.180;20.460;2022-09-30T20:32:40;48.80;;;17.55;;
65863;SDS011;52639;51.180;20.460;2022-09-30T20:36:46;65.47;;;20.63;;
65863;SDS011;52639;51.180;20.460;2022-09-30T20:40:54;70.60;;;22.20;;
65863;SDS011;52639;51.180;20.460;2022-09-30T20:45:00;66.20;;;20.10;;
65863;SDS011;52639;51.180;20.460;2022-09-30T20:49:05;70.03;;;20.02;;
65863;SDS011;52639;51.180;20.460;2022-09-30T20:53:11;77.35;;;21.70;;
65863;SDS011;52639;51.180;20.460;2022-09-30T20:57:20;74.30;;;19.45;;
65863;SDS011;52639;51.180;20.460;2022-09-30T21:01:24;85.35;;;21.92;;
65863;SDS011;52639;51.180;20.460;2022-09-30T21:05:29;71.78;;;19.77;;
65863;SDS011;52639;51.180;20.460;2022-09-30T21:09:33;69.00;;;17.98;;
65863;SDS011;52639;51.180;20.460;2022-09-30T21:13:43;75.18;;;17.60;;
65863;SDS011;52639;51.180;20.460;2022-09-30T21:17:51;82.70;;;19.65;;
65863;SDS011;52639;51.180;20.460;2022-09-30T21:21:57;102.38;;;21.80;;
65863;SDS011;52639;51.180;20.460;2022-09-30T21:26:01;84.88;;;22.23;;
65863;SDS011;52639;51.180;20.460;2022-09-30T21:30:10;67.30;;;17.83;;
65863;SDS011;52639;51.180;20.460;2022-09-30T21:34:16;67.90;;;17.30;;
65863;SDS011;52639;51.180;20.460;2022-09-30T21:38:21;84.70;;;20.40;;
65863;SDS011;52639;51.180;20.460;2022-09-30T21:42:25;82.22;;;18.08;;
65863;SDS011;52639;51.180;20.460;2022-09-30T21:46:33;71.32;;;16.75;;
65863;SDS011;52639;51.180;20.460;2022-09-30T21:50:37;93.90;;;25.17;;
65863;SDS011;52639;51.180;20.460;2022-09-30T21:54:39;90.05;;;16.70;;
65863;SDS011;52639;51.180;20.460;2022-09-30T21:58:46;80.25;;;20.85;;
65863;SDS011;52639;51.180;20.460;2022-09-30T22:02:54;105.93;;;23.30;;
65863;SDS011;52639;51.180;20.460;2022-09-30T22:07:00;70.28;;;17.45;;
65863;SDS011;52639;51.180;20.460;2022-09-30T22:11:06;93.97;;;16.85;;
65863;SDS011;52639;51.180;20.460;2022-09-30T22:15:11;75.15;;;20.02;;
65863;SDS011;52639;51.180;20.460;2022-09-30T22:19:18;98.78;;;19.45;;
65863;SDS011;52639;51.180;20.460;2022-09-30T22:23:23;103.05;;;18.88;;
65863;SDS011;52639;51.180;20.460;2022-09-30T22:27:26;119.80;;;19.08;;
65863;SDS011;52639;51.180;20.460;2022-09-30T22:31:32;119.53;;;17.67;;
65863;SDS011;52639;51.180;20.460;2022-09-30T22:35:39;102.32;;;18.45;;
65863;SDS011;52639;51.180;20.460;2022-09-30T22:39:59;135.57;;;32.20;;
65863;SDS011;52639;51.180;20.460;2022-09-30T22:44:04;155.82;;;30.58;;
65863;SDS011;52639;51.180;20.460;2022-09-30T22:48:09;116.57;;;20.65;;
65863;SDS011;52639;51.180;20.460;2022-09-30T22:52:16;106.47;;;16.95;;
65863;SDS011;52639;51.180;20.460;2022-09-30T22:56:19;95.15;;;16.20;;
65863;SDS011;52639;51.180;20.460;2022-09-30T23:00:22;164.82;;;18.83;;
65863;SDS011;52639;51.180;20.460;2022-09-30T23:04:27;162.43;;;20.13;;
65863;SDS011;52639;51.180;20.460;2022-09-30T23:08:34;133.73;;;17.17;;
65863;SDS011;52639;51.180;20.460;2022-09-30T23:12:41;82.45;;;16.67;;
65863;SDS011;52639;51.180;20.460;2022-09-30T23:16:44;103.20;;;14.98;;
65863;SDS011;52639;51.180;20.460;2022-09-30T23:20:52;121.05;;;16.73;;
65863;SDS011;52639;51.180;20.460;2022-09-30T23:25:00;117.80;;;15.98;;
65863;SDS011;52639;51.180;20.460;2022-09-30T23:29:03;135.82;;;16.02;;
65863;SDS011;52639;51.180;20.460;2022-09-30T23:33:07;147.60;;;15.90;;
65863;SDS011;52639;51.180;20.460;2022-09-30T23:37:13;143.60;;;18.10;;
65863;SDS011;52639;51.180;20.460;2022-09-30T23:41:22;154.35;;;16.25;;
65863;SDS011;52639;51.180;20.460;2022-09-30T23:45:27;119.20;;;15.45;;
65863;SDS011;52639;51.180;20.460;2022-09-30T23:49:32;101.32;;;15.57;;
65863;SDS011;52639;51.180;20.460;2022-09-30T23:53:39;147.02;;;15.30;;
65863;SDS011;52639;51.180;20.460;2022-09-30T23:57:48;140.88;;;17.45;;
